createdAt,value
2022-09-07T00:01:34.548Z,101099.19
2022-09-07T00:04:04.220Z,101094.00
2022-09-07T00:06:34.701Z,101087.09
2022-09-07T00:09:04.791Z,101083.13
2022-09-07T00:11:33.913Z,101075.75
2022-09-07T00:14:04.450Z,101078.56
2022-09-07T00:16:33.734Z,101076.81
2022-09-07T00:19:05.584Z,101086.59
2022-09-07T00:21:34.934Z,101081.56
2022-09-07T00:24:04.866Z,101082.78
2022-09-07T00:26:34.042Z,101075.88
2022-09-07T00:29:08.057Z,101071.47
2022-09-07T00:31:37.482Z,101069.81
2022-09-07T00:34:07.587Z,101067.38
2022-09-07T00:36:36.606Z,101069.03
2022-09-07T00:39:06.267Z,101064.84
2022-09-07T00:41:35.553Z,101061.38
2022-09-07T00:45:11.213Z,101067.69
2022-09-07T00:47:51.237Z,101068.00
2022-09-07T00:50:28.675Z,101073.88
2022-09-07T00:53:04.542Z,101068.78
2022-09-07T00:55:36.370Z,101065.38
2022-09-07T00:58:08.192Z,101059.31
2022-09-07T01:00:37.779Z,101063.84
2022-09-07T01:03:09.844Z,101066.59
2022-09-07T01:05:47.232Z,101061.34
2022-09-07T01:08:17.505Z,101072.94
2022-09-07T01:10:46.956Z,101074.78
2022-09-07T01:13:16.254Z,101067.09
2022-09-07T01:16:08.979Z,101064.75
2022-09-07T01:18:53.703Z,101078.97
2022-09-07T01:21:27.397Z,101071.44
2022-09-07T01:24:39.134Z,101063.09
2022-09-07T01:28:00.668Z,101074.69
2022-09-07T01:30:32.793Z,101069.47
2022-09-07T01:33:42.002Z,101067.00
2022-09-07T01:36:27.037Z,101068.16
2022-09-07T01:39:01.361Z,101065.94
2022-09-07T01:41:41.207Z,101061.91
2022-09-07T01:44:19.333Z,101062.25
2022-09-07T01:46:55.796Z,101069.19
2022-09-07T01:49:31.688Z,101065.81
2022-09-07T01:52:08.779Z,101066.72
2022-09-07T01:54:46.665Z,101072.00
2022-09-07T01:57:26.333Z,101074.00
2022-09-07T02:00:06.636Z,101079.38
2022-09-07T02:02:49.953Z,101079.56
2022-09-07T02:05:24.328Z,101071.00
2022-09-07T02:08:02.070Z,101078.03
2022-09-07T02:10:40.378Z,101080.72
2022-09-07T02:13:16.260Z,101071.06
2022-09-07T02:15:53.841Z,101065.94
2022-09-07T02:18:25.952Z,101061.69
2022-09-07T02:21:01.202Z,101066.84
2022-09-07T02:23:39.387Z,101071.34
2022-09-07T02:26:17.082Z,101057.63
2022-09-07T02:28:46.197Z,101066.31
2022-09-07T02:31:17.113Z,101061.22
2022-09-07T02:33:46.430Z,101054.44
2022-09-07T02:36:19.665Z,101053.44
2022-09-07T02:38:48.922Z,101055.38
2022-09-07T02:41:36.511Z,101048.25
2022-09-07T02:44:09.954Z,101045.22
2022-09-07T02:47:00.078Z,101047.81
2022-09-07T02:49:55.374Z,101047.81
2022-09-07T02:52:44.985Z,101036.34
2022-09-07T02:55:32.756Z,101042.38
2022-09-07T02:58:22.650Z,101032.97
2022-09-07T03:01:03.752Z,101029.69
2022-09-07T03:03:48.164Z,101036.75
2022-09-07T03:06:27.473Z,101027.19
2022-09-07T03:09:00.527Z,101029.19
2022-09-07T03:11:30.975Z,101026.81
2022-09-07T03:14:14.804Z,101025.28
2022-09-07T03:16:44.524Z,101023.78
2022-09-07T03:19:14.450Z,101021.16
2022-09-07T03:21:43.297Z,101019.56
2022-09-07T03:24:12.054Z,101031.78
2022-09-07T03:26:44.914Z,101025.72
2022-09-07T03:29:14.370Z,101029.84
2022-09-07T03:31:42.998Z,101034.94
2022-09-07T03:34:12.679Z,101027.91
2022-09-07T03:36:42.850Z,101031.41
2022-09-07T03:39:14.013Z,101029.88
2022-09-07T03:41:42.827Z,101037.84
2022-09-07T03:44:12.149Z,101035.34
2022-09-07T03:46:40.668Z,101031.16
2022-09-07T03:49:09.592Z,101034.03
2022-09-07T03:51:38.162Z,101032.41
2022-09-07T03:54:08.645Z,101034.19
2022-09-07T03:56:37.530Z,101035.28
2022-09-07T03:59:06.093Z,101031.78
2022-09-07T04:01:34.843Z,101030.69
2022-09-07T04:04:03.972Z,101036.16
2022-09-07T04:06:33.240Z,101029.22
2022-09-07T04:09:04.604Z,101032.75
2022-09-07T04:11:35.853Z,101036.06
2022-09-07T04:14:04.948Z,101030.69
2022-09-07T04:16:34.279Z,101037.56
2022-09-07T04:19:02.949Z,101031.50
2022-09-07T04:21:34.196Z,101036.78
2022-09-07T04:24:03.308Z,101034.50
2022-09-07T04:26:37.106Z,101041.69
2022-09-07T04:29:06.477Z,101037.53
2022-09-07T04:31:35.580Z,101039.03
2022-09-07T04:34:06.073Z,101040.50
2022-09-07T04:36:35.421Z,101033.50
2022-09-07T04:39:06.431Z,101039.25
2022-09-07T04:41:36.331Z,101037.16
2022-09-07T04:44:05.995Z,101033.34
2022-09-07T04:46:36.853Z,101036.41
2022-09-07T04:49:08.353Z,101041.25
2022-09-07T04:51:39.639Z,101052.16
2022-09-07T04:54:08.432Z,101041.31
2022-09-07T04:56:38.757Z,101051.47
2022-09-07T04:59:07.525Z,101057.25
2022-09-07T05:01:36.421Z,101042.19
2022-09-07T05:04:06.162Z,101047.84
2022-09-07T05:06:34.912Z,101046.63
2022-09-07T05:09:03.804Z,101052.34
2022-09-07T05:11:32.402Z,101048.41
2022-09-07T05:14:05.272Z,101059.22
2022-09-07T05:16:34.136Z,101047.44
2022-09-07T05:19:05.859Z,101048.75
2022-09-07T05:21:36.184Z,101041.59
2022-09-07T05:24:05.832Z,101042.06
2022-09-07T05:26:39.845Z,101044.91
2022-09-07T05:31:59.818Z,101052.47
2022-09-07T05:37:03.068Z,101050.31
2022-09-07T05:39:33.433Z,101059.06
2022-09-07T05:42:02.126Z,101049.69
2022-09-07T05:44:47.389Z,101051.66
2022-09-07T05:47:16.318Z,101056.75
2022-09-07T05:49:44.893Z,101042.94
2022-09-07T05:52:13.494Z,101043.72
2022-09-07T05:54:42.348Z,101038.59
2022-09-07T05:57:13.586Z,101045.75
2022-09-07T05:59:43.500Z,101044.84
2022-09-07T06:02:15.941Z,101044.97
2022-09-07T06:04:44.701Z,101037.22
2022-09-07T06:07:23.017Z,101039.16
2022-09-07T06:12:43.375Z,101032.16
2022-09-07T06:15:15.692Z,101035.63
2022-09-07T06:17:44.800Z,101039.81
2022-09-07T06:20:13.832Z,101038.06
2022-09-07T06:22:42.657Z,101030.84
2022-09-07T06:25:11.363Z,101031.16
2022-09-07T06:27:40.038Z,101029.59
2022-09-07T06:30:10.316Z,101023.00
2022-09-07T06:35:15.829Z,101022.66
2022-09-07T06:37:45.310Z,101021.22
2022-09-07T06:40:14.148Z,101017.47
2022-09-07T06:42:42.795Z,101014.69
2022-09-07T06:45:12.930Z,101005.31
2022-09-07T06:47:43.007Z,100998.97
2022-09-07T06:50:12.987Z,101004.03
2022-09-07T06:55:30.345Z,101018.84
2022-09-07T06:57:59.112Z,101020.06
2022-09-07T07:00:28.050Z,101021.06
2022-09-07T07:02:58.124Z,101020.25
2022-09-07T07:05:26.921Z,101018.22
2022-09-07T07:07:56.425Z,101015.78
2022-09-07T07:10:25.346Z,101023.75
2022-09-07T07:12:58.001Z,101022.59
2022-09-07T07:15:29.414Z,101025.38
2022-09-07T07:18:09.524Z,101036.38
2022-09-07T07:20:48.145Z,101041.47
2022-09-07T07:23:16.986Z,101048.22
2022-09-07T07:25:45.521Z,101048.19
2022-09-07T07:31:09.941Z,101060.19
2022-09-07T07:33:42.795Z,101060.81
2022-09-07T07:36:14.699Z,101063.63
2022-09-07T07:39:01.912Z,101061.88
2022-09-07T07:44:22.221Z,101059.22
2022-09-07T07:46:51.828Z,101046.78
2022-09-07T07:49:21.936Z,101049.78
2022-09-07T07:54:39.483Z,101044.63
2022-09-07T07:57:08.187Z,101034.78
2022-09-07T07:59:37.182Z,101037.03
2022-09-07T08:02:08.437Z,101041.19
2022-09-07T08:04:38.624Z,101032.22
2022-09-07T08:07:10.578Z,101028.94
2022-09-07T08:09:41.532Z,101025.03
2022-09-07T08:12:13.270Z,101027.25
2022-09-07T08:14:42.355Z,101018.88
2022-09-07T08:17:13.648Z,101015.41
2022-09-07T08:19:44.152Z,101013.88
2022-09-07T08:22:13.927Z,101007.06
2022-09-07T08:24:42.506Z,101004.44
2022-09-07T08:27:11.187Z,101012.09
2022-09-07T08:29:40.066Z,101018.63
2022-09-07T08:32:08.651Z,101003.13
2022-09-07T08:34:38.193Z,101004.69
2022-09-07T08:37:09.849Z,101007.50
2022-09-07T08:39:38.415Z,101007.19
2022-09-07T08:42:42.006Z,101008.91
2022-09-07T08:45:17.024Z,101002.47
2022-09-07T08:47:51.271Z,100990.06
2022-09-07T08:50:24.963Z,100990.88
2022-09-07T08:53:02.434Z,100988.25
2022-09-07T08:55:36.813Z,100989.06
2022-09-07T08:58:27.042Z,100986.94
2022-09-07T09:06:52.516Z,100986.31
2022-09-07T09:09:34.694Z,100974.25
2022-09-07T09:12:18.796Z,100980.94
2022-09-07T09:15:10.272Z,100969.47
2022-09-07T09:17:47.557Z,100967.84
2022-09-07T09:20:26.944Z,100954.06
2022-09-07T09:23:06.097Z,100952.00
2022-09-07T09:25:40.151Z,100945.91
2022-09-07T09:28:13.473Z,100939.84
2022-09-07T09:30:42.887Z,100940.56
2022-09-07T09:33:18.748Z,100946.97
2022-09-07T09:35:50.967Z,100945.00
2022-09-07T09:38:43.631Z,100942.97
2022-09-07T09:41:15.992Z,100938.13
2022-09-07T09:43:53.028Z,100950.94
2022-09-07T09:46:28.417Z,100936.66
2022-09-07T09:49:01.217Z,100939.13
2022-09-07T09:54:33.601Z,100922.63
2022-09-07T09:57:03.651Z,100926.53
2022-09-07T10:05:28.385Z,100926.22
2022-09-07T10:07:57.871Z,100928.00
2022-09-07T10:10:28.514Z,100913.88
2022-09-07T10:12:59.228Z,100924.16
2022-09-07T10:15:39.927Z,100915.16
2022-09-07T10:18:22.858Z,100908.13
2022-09-07T10:20:51.568Z,100906.44
2022-09-07T10:23:25.411Z,100908.69
2022-09-07T10:25:54.185Z,100902.72
2022-09-07T10:29:06.249Z,100911.88
2022-09-07T10:31:24.135Z,100913.25
2022-09-07T10:37:04.454Z,100883.78
2022-09-07T10:39:37.589Z,100875.97
2022-09-07T10:42:26.056Z,100876.66
2022-09-07T10:45:10.309Z,100875.38
2022-09-07T10:47:55.917Z,100871.59
2022-09-07T10:50:32.752Z,100888.69
2022-09-07T10:53:43.748Z,100876.03
2022-09-07T10:56:18.664Z,100874.28
2022-09-07T10:59:07.237Z,100872.13
2022-09-07T11:01:56.532Z,100868.53
2022-09-07T11:04:46.951Z,100867.81
2022-09-07T11:07:35.206Z,100873.47
2022-09-07T11:10:20.554Z,100873.81
2022-09-07T11:12:53.157Z,100865.50
2022-09-07T11:15:28.883Z,100873.34
2022-09-07T11:18:07.672Z,100868.09
2022-09-07T11:20:44.507Z,100863.28
2022-09-07T11:23:21.540Z,100867.41
2022-09-07T11:26:03.361Z,100862.13
2022-09-07T11:28:47.147Z,100851.50
2022-09-07T11:31:27.195Z,100861.72
2022-09-07T11:37:04.237Z,100835.66
2022-09-07T11:39:41.877Z,100842.84
2022-09-07T11:45:23.110Z,100845.75
2022-09-07T11:48:02.210Z,100840.53
2022-09-07T11:50:41.877Z,100833.56
2022-09-07T11:53:19.179Z,100833.59
2022-09-07T11:55:55.875Z,100823.88
2022-09-07T11:58:57.327Z,100820.00
2022-09-07T12:01:42.202Z,100825.06
2022-09-07T12:05:00.406Z,100821.16
2022-09-07T12:07:59.779Z,100826.38
2022-09-07T12:10:53.533Z,100816.03
2022-09-07T12:13:49.422Z,100814.69
2022-09-07T12:16:34.691Z,100819.22
2022-09-07T12:19:20.328Z,100815.16
2022-09-07T12:21:57.851Z,100820.50
2022-09-07T12:24:45.830Z,100819.31
2022-09-07T12:27:40.461Z,100825.31
2022-09-07T12:30:50.382Z,100809.72
2022-09-07T12:33:33.047Z,100806.41
2022-09-07T12:36:03.322Z,100800.72
2022-09-07T12:39:20.936Z,100793.53
2022-09-07T12:44:44.038Z,100791.00
2022-09-07T12:47:31.543Z,100792.91
2022-09-07T12:50:28.437Z,100783.34
2022-09-07T12:53:29.850Z,100784.31
2022-09-07T12:56:33.550Z,100785.50
2022-09-07T12:59:40.403Z,100778.47
2022-09-07T13:03:00.247Z,100770.03
2022-09-07T13:05:54.590Z,100764.03
2022-09-07T13:08:53.460Z,100766.00
2022-09-07T13:11:35.599Z,100752.53
2022-09-07T13:14:09.430Z,100758.19
2022-09-07T13:20:07.661Z,100749.97
2022-09-07T13:22:56.906Z,100748.56
2022-09-07T13:25:54.542Z,100745.91
2022-09-07T13:28:41.994Z,100743.78
2022-09-07T13:31:49.574Z,100742.81
2022-09-07T13:34:51.444Z,100739.22
2022-09-07T13:37:24.487Z,100744.25
2022-09-07T13:39:58.624Z,100746.91
2022-09-07T13:42:31.573Z,100744.66
2022-09-07T13:45:03.714Z,100741.00
2022-09-07T13:47:59.138Z,100743.38
2022-09-07T13:50:42.995Z,100752.41
2022-09-07T13:53:43.778Z,100746.75
2022-09-07T13:56:30.163Z,100743.91
2022-09-07T13:58:59.178Z,100739.47
2022-09-07T14:01:29.963Z,100746.78
2022-09-07T14:04:07.386Z,100741.59
2022-09-07T14:06:38.197Z,100734.81
2022-09-07T14:09:15.421Z,100731.97
2022-09-07T14:11:47.398Z,100718.38
2022-09-07T14:14:20.216Z,100723.16
2022-09-07T14:16:55.366Z,100725.97
2022-09-07T14:19:32.892Z,100720.63
2022-09-07T14:22:04.171Z,100706.59
2022-09-07T14:24:38.094Z,100710.03
2022-09-07T14:27:20.544Z,100717.38
2022-09-07T14:29:49.511Z,100708.97
2022-09-07T14:32:23.495Z,100715.94
2022-09-07T14:34:53.609Z,100713.59
2022-09-07T14:37:24.303Z,100719.03
2022-09-07T14:39:54.521Z,100708.00
2022-09-07T14:42:25.544Z,100699.59
2022-09-07T14:45:20.374Z,100701.22
2022-09-07T14:47:53.678Z,100696.88
2022-09-07T14:50:30.902Z,100694.41
2022-09-07T14:56:04.168Z,100684.47
2022-09-07T14:58:33.566Z,100689.22
2022-09-07T15:04:20.265Z,100689.66
2022-09-07T15:07:05.580Z,100677.38
2022-09-07T15:09:39.257Z,100673.94
2022-09-07T15:12:27.331Z,100674.09
2022-09-07T15:15:21.772Z,100675.47
2022-09-07T15:17:50.676Z,100669.44
2022-09-07T15:20:40.935Z,100676.78
2022-09-07T15:23:16.664Z,100680.25
2022-09-07T15:25:51.191Z,100686.34
2022-09-07T15:34:13.938Z,100679.91
2022-09-07T15:36:45.225Z,100679.16
2022-09-07T15:39:21.134Z,100673.81
2022-09-07T15:41:51.603Z,100668.56
2022-09-07T15:44:24.890Z,100671.59
2022-09-07T15:49:50.012Z,100675.28
2022-09-07T15:52:20.022Z,100675.75
2022-09-07T15:54:49.939Z,100677.19
2022-09-07T16:00:09.070Z,100682.50
2022-09-07T16:05:32.700Z,100681.13
2022-09-07T16:10:55.201Z,100665.25
2022-09-07T16:13:24.975Z,100666.94
2022-09-07T16:15:54.140Z,100672.03
2022-09-07T16:18:23.196Z,100665.13
2022-09-07T16:20:53.238Z,100658.38
2022-09-07T16:23:22.129Z,100665.16
2022-09-07T16:26:00.404Z,100665.91
2022-09-07T16:28:30.636Z,100664.97
2022-09-07T16:31:00.087Z,100656.34
2022-09-07T16:33:35.920Z,100658.34
2022-09-07T16:36:09.369Z,100655.34
2022-09-07T16:38:47.054Z,100650.13
2022-09-07T16:41:20.309Z,100645.47
2022-09-07T16:43:50.924Z,100639.47
2022-09-07T16:46:21.797Z,100646.75
2022-09-07T16:48:52.387Z,100644.97
2022-09-07T16:51:23.299Z,100643.97
2022-09-07T16:53:55.099Z,100644.53
2022-09-07T16:56:27.933Z,100647.88
2022-09-07T16:58:59.812Z,100649.69
2022-09-07T17:01:32.546Z,100650.50
2022-09-07T17:04:05.534Z,100642.50
2022-09-07T17:06:39.547Z,100638.66
2022-09-07T17:09:09.024Z,100633.28
2022-09-07T17:11:39.449Z,100644.31
2022-09-07T17:14:08.443Z,100647.59
2022-09-07T17:16:40.897Z,100650.31
2022-09-07T17:22:01.734Z,100654.84
2022-09-07T17:24:32.338Z,100650.34
2022-09-07T17:27:03.383Z,100658.22
2022-09-07T17:29:37.204Z,100656.56
2022-09-07T17:34:56.227Z,100665.78
2022-09-07T17:37:25.693Z,100665.31
2022-09-07T17:39:54.509Z,100663.28
2022-09-07T17:43:38.663Z,100672.69
2022-09-07T17:45:17.064Z,100675.75
2022-09-07T17:47:45.969Z,100672.88
2022-09-07T17:50:14.532Z,100686.47
2022-09-07T17:52:45.947Z,100679.03
2022-09-07T17:55:15.083Z,100686.22
2022-09-07T17:57:44.968Z,100676.25
2022-09-07T18:00:15.471Z,100679.97
2022-09-07T18:02:44.262Z,100683.50
2022-09-07T18:05:12.815Z,100680.47
2022-09-07T18:07:41.448Z,100687.59
2022-09-07T18:10:11.050Z,100681.34
2022-09-07T18:12:39.816Z,100678.22
2022-09-07T18:15:10.894Z,100678.56
2022-09-07T18:17:40.096Z,100684.06
2022-09-07T18:20:09.882Z,100679.63
2022-09-07T18:22:38.420Z,100673.69
2022-09-07T18:25:10.244Z,100677.66
2022-09-07T18:27:40.415Z,100679.94
2022-09-07T18:30:13.875Z,100681.25
2022-09-07T18:32:42.911Z,100681.72
2022-09-07T18:35:12.002Z,100674.88
2022-09-07T18:37:40.570Z,100671.50
2022-09-07T18:40:10.644Z,100683.63
2022-09-07T18:42:40.521Z,100676.41
2022-09-07T18:45:28.136Z,100670.88
2022-09-07T18:47:57.112Z,100674.25
2022-09-07T18:50:26.461Z,100679.88
2022-09-07T18:53:03.965Z,100680.59
2022-09-07T18:55:42.967Z,100676.06
2022-09-07T18:58:11.552Z,100673.63
2022-09-07T19:00:46.232Z,100666.78
2022-09-07T19:03:16.687Z,100669.91
2022-09-07T19:05:50.006Z,100679.69
2022-09-07T19:08:19.216Z,100682.66
2022-09-07T19:10:47.870Z,100683.53
2022-09-07T19:13:16.478Z,100682.31
2022-09-07T19:15:46.571Z,100686.56
2022-09-07T19:18:15.171Z,100683.31
2022-09-07T19:20:43.699Z,100685.69
2022-09-07T19:23:12.486Z,100675.13
2022-09-07T19:25:42.380Z,100679.34
2022-09-07T19:28:10.919Z,100686.81
2022-09-07T19:30:39.870Z,100673.22
2022-09-07T19:33:12.114Z,100682.72
2022-09-07T19:35:40.849Z,100678.38
2022-09-07T19:38:09.669Z,100685.38
2022-09-07T19:40:38.393Z,100682.13
2022-09-07T19:43:07.383Z,100674.31
2022-09-07T19:45:40.528Z,100670.44
2022-09-07T19:48:10.814Z,100676.09
2022-09-07T19:50:39.478Z,100672.25
2022-09-07T19:53:08.089Z,100676.31
2022-09-07T19:55:36.942Z,100676.44
2022-09-07T19:58:05.543Z,100673.41
2022-09-07T20:00:34.314Z,100685.69
2022-09-07T20:03:03.111Z,100690.25
2022-09-07T20:05:33.113Z,100676.56
2022-09-07T20:08:01.680Z,100683.28
2022-09-07T20:10:32.355Z,100684.72
2022-09-07T20:13:01.413Z,100683.31
2022-09-07T20:15:30.661Z,100678.75
2022-09-07T20:17:59.479Z,100689.56
2022-09-07T20:20:27.992Z,100686.28
2022-09-07T20:22:57.840Z,100685.72
2022-09-07T20:25:26.840Z,100685.00
2022-09-07T20:27:55.439Z,100684.16
2022-09-07T20:30:25.240Z,100679.72
2022-09-07T20:32:54.023Z,100676.22
2022-09-07T20:35:23.017Z,100670.19
2022-09-07T20:37:51.573Z,100686.19
2022-09-07T20:40:21.716Z,100676.47
2022-09-07T20:42:50.341Z,100683.78
2022-09-07T20:45:19.294Z,100676.94
2022-09-07T20:47:48.202Z,100680.50
2022-09-07T20:50:16.868Z,100681.00
2022-09-07T20:52:45.503Z,100679.31
2022-09-07T20:55:14.275Z,100685.69
2022-09-07T20:57:44.202Z,100687.72
2022-09-07T21:00:13.477Z,100686.03
2022-09-07T21:02:42.264Z,100679.19
2022-09-07T21:05:11.564Z,100676.41
2022-09-07T21:07:40.862Z,100672.16
2022-09-07T21:10:10.828Z,100688.13
2022-09-07T21:12:39.403Z,100687.63
2022-09-07T21:15:10.943Z,100687.78
2022-09-07T21:17:39.744Z,100688.84
2022-09-07T21:20:08.801Z,100684.38
2022-09-07T21:22:37.349Z,100687.84
2022-09-07T21:25:07.252Z,100688.19
2022-09-07T21:27:38.690Z,100691.03
2022-09-07T21:30:10.541Z,100694.88
2022-09-07T21:32:40.424Z,100698.81
2022-09-07T21:35:11.129Z,100702.63
2022-09-07T21:37:39.762Z,100702.88
2022-09-07T21:40:09.787Z,100694.88
2022-09-07T21:42:39.095Z,100708.59
2022-09-07T21:45:10.437Z,100692.03
2022-09-07T21:47:39.559Z,100691.00
2022-09-07T21:50:09.032Z,100682.91
2022-09-07T21:52:38.783Z,100686.28
2022-09-07T21:55:09.080Z,100677.00
2022-09-07T21:57:38.221Z,100679.03
2022-09-07T22:00:11.966Z,100689.41
2022-09-07T22:02:40.748Z,100679.38
2022-09-07T22:05:10.248Z,100697.53
2022-09-07T22:07:38.772Z,100691.13
2022-09-07T22:10:09.587Z,100686.25
2022-09-07T22:12:38.088Z,100684.91
2022-09-07T22:15:09.348Z,100686.81
2022-09-07T22:17:38.172Z,100673.84
2022-09-07T22:20:08.674Z,100672.03
2022-09-07T22:22:37.181Z,100675.84
2022-09-07T22:25:06.748Z,100675.94
2022-09-07T22:27:35.249Z,100679.22
2022-09-07T22:30:03.946Z,100673.72
2022-09-07T22:32:34.059Z,100679.22
2022-09-07T22:35:02.588Z,100672.47
2022-09-07T22:37:31.608Z,100676.28
2022-09-07T22:40:00.427Z,100676.38
2022-09-07T22:42:29.035Z,100672.06
2022-09-07T22:44:59.028Z,100672.88
2022-09-07T22:47:27.810Z,100677.84
2022-09-07T22:49:57.650Z,100677.97
2022-09-07T22:52:26.244Z,100670.03
2022-09-07T22:54:55.004Z,100675.41
2022-09-07T22:57:23.484Z,100676.50
2022-09-07T22:59:52.457Z,100676.69
2022-09-07T23:02:21.177Z,100675.34
2022-09-07T23:04:49.930Z,100674.56
2022-09-07T23:07:19.966Z,100676.81
2022-09-07T23:09:48.705Z,100677.09
2022-09-07T23:12:17.172Z,100673.50
2022-09-07T23:14:45.709Z,100673.53
2022-09-07T23:17:14.576Z,100669.91
2022-09-07T23:19:44.047Z,100667.69
2022-09-07T23:22:12.576Z,100669.19
2022-09-07T23:24:42.634Z,100666.13
2022-09-07T23:27:11.152Z,100659.59
2022-09-07T23:29:39.640Z,100667.09
2022-09-07T23:32:08.373Z,100657.69
2022-09-07T23:34:37.753Z,100652.44
2022-09-07T23:37:06.374Z,100655.06
2022-09-07T23:39:35.130Z,100649.47
2022-09-07T23:42:05.349Z,100653.03
2022-09-07T23:44:33.892Z,100654.06
2022-09-07T23:47:02.734Z,100653.16
2022-09-07T23:49:31.376Z,100648.50
2022-09-07T23:52:00.950Z,100657.31
2022-09-07T23:54:29.765Z,100659.31
2022-09-07T23:56:58.416Z,100653.31
2022-09-07T23:59:28.254Z,100657.84
